Time;durP1;ratioP1;P1;durP2;ratioP2;P2;SDS_P1;SDS_P2;PMS_P1;PMS_P2;Temp;Humidity;BMP_temperature;BMP_pressure;BME280_temperature;BME280_humidity;BME280_pressure;Samples;Min_cycle;Max_cycle;Signal;HPM_P1;HPM_P2
2021/12/25 00:01:09;;;;;;;6.83;2.30;;;;;;;-1.18;87.48;99676.56;1788953;80;21074;-76
2021/12/25 00:03:37;;;;;;;6.27;2.47;;;;;;;-1.22;87.01;99682.58;1788847;80;21046;-76
2021/12/25 00:06:05;;;;;;;4.77;1.60;;;;;;;-1.35;86.59;99689.87;1789017;80;21030;-77
2021/12/25 00:08:32;;;;;;;3.47;1.00;;;;;;;-1.47;86.36;99699.73;1789088;80;21118;-76
2021/12/25 00:11:01;;;;;;;5.63;1.90;;;;;;;-1.52;86.59;99703.13;1788926;80;21595;-76
2021/12/25 00:13:28;;;;;;;4.27;1.50;;;;;;;-1.54;86.65;99717.70;1788863;80;21113;-77
2021/12/25 00:15:55;;;;;;;5.23;1.40;;;;;;;-1.59;86.46;99724.11;1789063;80;21089;-77
2021/12/25 00:18:22;;;;;;;2.43;1.10;;;;;;;-1.63;86.42;99730.12;1788938;80;21100;-76
2021/12/25 00:20:50;;;;;;;3.13;0.90;;;;;;;-1.65;86.52;99742.95;1789256;80;21141;-76
2021/12/25 00:23:17;;;;;;;2.97;1.33;;;;;;;-1.66;86.52;99743.81;1788844;80;21481;-77
2021/12/25 00:25:49;;;;;;;2.43;0.63;;;;;;;-1.65;86.58;99748.52;1789188;80;21086;-76
2021/12/25 00:31:20;;;;;;;8.57;3.07;;;;;;;-1.71;86.29;99761.36;1789305;80;21073;-76
2021/12/25 00:36:19;;;;;;;5.03;2.07;;;;;;;-1.85;85.88;99774.17;1789522;80;21021;-76
2021/12/25 00:38:48;;;;;;;6.37;2.30;;;;;;;-1.89;85.86;99774.56;1788828;80;21475;-76
2021/12/25 00:41:19;;;;;;;3.83;1.50;;;;;;;-1.96;85.63;99776.70;1789816;80;21117;-76
2021/12/25 00:43:47;;;;;;;4.00;1.62;;;;;;;-2.02;85.49;99774.11;1789479;80;21387;-75
2021/12/25 00:46:14;;;;;;;3.40;1.50;;;;;;;-2.10;85.21;99768.08;1789564;80;21865;-75
2021/12/25 00:48:41;;;;;;;7.53;2.10;;;;;;;-2.17;85.30;99774.03;1789081;80;21276;-75
2021/12/25 00:51:08;;;;;;;4.93;2.20;;;;;;;-2.20;85.09;99789.42;1789628;80;21002;-75
2021/12/25 00:53:35;;;;;;;2.87;1.10;;;;;;;-2.28;84.99;99789.38;1789349;80;21073;-75
2021/12/25 00:56:03;;;;;;;3.60;0.80;;;;;;;-2.35;84.61;99800.05;1789668;80;21499;-75
2021/12/25 00:58:31;;;;;;;4.93;0.97;;;;;;;-2.40;84.50;99808.14;1789145;78;21548;-75
2021/12/25 01:00:58;;;;;;;1.90;0.70;;;;;;;-2.46;84.55;99810.68;1789326;80;21026;-75
2021/12/25 01:03:25;;;;;;;2.40;0.90;;;;;;;-2.46;84.40;99820.95;1789378;80;21559;-76
2021/12/25 01:05:55;;;;;;;2.57;0.97;;;;;;;-2.51;84.28;99821.34;1789273;80;21027;-75
2021/12/25 01:08:22;;;;;;;3.37;0.80;;;;;;;-2.56;84.53;99823.86;1789272;80;21046;-75
2021/12/25 01:10:51;;;;;;;2.80;0.93;;;;;;;-2.55;84.37;99834.98;1762746;80;21188;-75
2021/12/25 01:13:26;;;;;;;4.57;1.13;;;;;;;-2.63;83.88;99838.80;1789309;80;21042;-74
2021/12/25 01:19:03;;;;;;;3.97;1.43;;;;;;;-2.76;84.10;99856.22;1789435;80;21004;-75
2021/12/25 01:29:24;;;;;;;3.33;1.60;;;;;;;-3.05;83.39;99890.56;1771335;80;21034;-75
2021/12/25 01:34:55;;;;;;;6.77;1.47;;;;;;;-3.07;84.12;99892.27;1789352;80;21058;-76
2021/12/25 01:37:23;;;;;;;4.80;1.07;;;;;;;-3.10;84.05;99894.37;1789306;80;21281;-75
2021/12/25 01:48:26;;;;;;;8.28;2.08;;;;;;;-3.22;83.84;99918.16;1787714;80;21042;-75
2021/12/25 01:50:54;;;;;;;8.10;2.00;;;;;;;-3.24;83.92;99921.15;1789265;80;21123;-75
2021/12/25 01:53:22;;;;;;;4.83;1.63;;;;;;;-3.27;83.77;99919.84;1789492;80;21031;-75
2021/12/25 01:55:49;;;;;;;3.90;1.50;;;;;;;-3.30;83.78;99919.77;1789367;80;21018;-76
2021/12/25 01:58:16;;;;;;;6.00;1.57;;;;;;;-3.29;83.81;99920.66;1789600;80;21006;-76
2021/12/25 02:00:48;;;;;;;3.63;1.17;;;;;;;-3.26;84.07;99920.69;1789200;78;21057;-75
2021/12/25 02:03:19;;;;;;;4.57;1.30;;;;;;;-3.27;83.88;99926.25;1789448;80;21306;-75
2021/12/25 02:05:47;;;;;;;4.77;1.40;;;;;;;-3.24;84.01;99922.44;1789187;80;21547;-76
2021/12/25 02:08:15;;;;;;;2.53;1.27;;;;;;;-3.27;83.90;99924.08;1789580;80;21084;-75
2021/12/25 02:10:43;;;;;;;6.20;1.23;;;;;;;-3.26;83.85;99920.69;1789051;80;21598;-76
2021/12/25 02:13:12;;;;;;;4.20;1.40;;;;;;;-3.25;83.79;99921.12;1789265;80;21077;-76
2021/12/25 02:15:44;;;;;;;4.37;1.33;;;;;;;-3.29;83.44;99929.63;1789331;80;21118;-75
2021/12/25 02:20:56;;;;;;;5.27;1.70;;;;;;;-3.34;83.54;99937.69;1729598;83;21082;-75
2021/12/25 02:23:23;;;;;;;4.03;1.37;;;;;;;-3.36;83.54;99937.65;1789191;80;21002;-75
2021/12/25 02:25:55;;;;;;;3.00;1.37;;;;;;;-3.40;83.37;99938.47;1789531;80;21050;-76
2021/12/25 02:28:25;;;;;;;4.47;1.13;;;;;;;-3.43;83.35;99937.16;1789172;80;21935;-76
2021/12/25 02:30:57;;;;;;;3.95;1.47;;;;;;;-3.46;83.46;99937.98;1789656;80;21034;-76
2021/12/25 02:33:26;;;;;;;5.90;2.90;;;;;;;-3.42;83.60;99948.69;1789220;80;21081;-75
2021/12/25 02:35:55;;;;;;;5.50;1.97;;;;;;;-3.48;83.23;99946.06;1789531;80;21022;-75
2021/12/25 02:38:24;;;;;;;4.77;1.57;;;;;;;-3.53;83.05;99944.28;1789235;80;21054;-76
2021/12/25 02:40:52;;;;;;;4.00;1.70;;;;;;;-3.56;83.09;99946.38;1789518;80;21643;-76
2021/12/25 02:43:20;;;;;;;4.70;1.57;;;;;;;-3.64;82.96;99951.39;1789191;80;21046;-76
2021/12/25 02:45:48;;;;;;;4.53;1.70;;;;;;;-3.62;83.21;99952.71;1789563;80;21081;-75
2021/12/25 02:48:20;;;;;;;4.07;1.60;;;;;;;-3.66;82.95;99950.93;1789253;80;20991;-76
2021/12/25 02:50:47;;;;;;;6.10;1.90;;;;;;;-3.70;82.93;99955.59;1789469;80;21757;-76
2021/12/25 02:53:16;;;;;;;4.17;1.73;;;;;;;-3.75;82.76;99959.78;1789164;80;21120;-75
2021/12/25 02:55:45;;;;;;;3.23;1.00;;;;;;;-3.83;82.66;99966.07;1789289;80;20994;-75
2021/12/25 02:58:15;;;;;;;5.20;1.80;;;;;;;-3.89;82.57;99971.11;1763004;80;21594;-76
2021/12/25 03:00:49;;;;;;;6.43;1.60;;;;;;;-3.96;82.64;99972.73;1814231;78;21024;-76
2021/12/25 03:03:16;;;;;;;6.77;1.70;;;;;;;-3.96;82.83;99970.17;1815300;78;21012;-75
2021/12/25 03:05:43;;;;;;;5.43;1.60;;;;;;;-3.97;82.91;99968.86;1821305;78;21122;-75
2021/12/25 03:08:13;;;;;;;3.87;1.20;;;;;;;-3.93;83.16;99977.90;1821244;78;21008;-75
2021/12/25 03:10:53;;;;;;;5.65;1.40;;;;;;;-3.94;82.96;99980.00;1821467;78;21040;-76
2021/12/25 03:15:59;;;;;;;4.47;1.50;;;;;;;-3.88;83.16;99974.10;1821425;78;21654;-76
2021/12/25 03:18:32;;;;;;;3.30;1.17;;;;;;;-3.87;83.35;99974.56;1820941;78;21089;-76
2021/12/25 03:21:02;;;;;;;6.87;1.60;;;;;;;-3.82;83.21;99984.03;1821276;78;20989;-75
2021/12/25 03:23:32;;;;;;;4.03;1.20;;;;;;;-3.87;82.96;99977.98;1792326;78;21015;-76
2021/12/25 03:26:01;;;;;;;5.30;1.53;;;;;;;-3.91;82.70;99972.78;1821347;78;20996;-76
2021/12/25 03:28:33;;;;;;;4.55;1.42;;;;;;;-3.96;82.62;99970.17;1821747;78;21078;-76
2021/12/25 03:31:04;;;;;;;5.28;1.50;;;;;;;-3.94;82.83;99976.58;1821395;78;21104;-76
2021/12/25 03:33:32;;;;;;;3.77;1.33;;;;;;;-3.96;82.76;99974.41;1821510;78;21023;-76
2021/12/25 03:36:03;;;;;;;5.10;1.50;;;;;;;-3.94;82.80;99974.02;1821353;78;21003;-75
2021/12/25 03:38:31;;;;;;;5.30;1.90;;;;;;;-3.89;83.01;99980.93;1821624;78;20992;-76
2021/12/25 03:41:00;;;;;;;4.67;1.53;;;;;;;-3.89;82.91;99980.93;1821360;78;21031;-76
2021/12/25 03:43:28;;;;;;;6.13;1.60;;;;;;;-3.87;82.96;99983.53;1821474;78;21055;-76
2021/12/25 03:45:55;;;;;;;5.00;1.40;;;;;;;-3.91;82.52;99989.42;1821193;78;20997;-75
2021/12/25 03:59:12;;;;;;;4.10;1.30;;;;;;;-4.20;82.16;100000.51;1821418;78;21025;-76
2021/12/25 04:04:24;;;;;;;3.73;1.30;;;;;;;-4.29;82.26;100010.18;1821588;78;21008;-77
2021/12/25 04:07:08;;;;;;;4.87;1.07;;;;;;;-4.34;82.09;100008.81;1749914;82;21230;-75
2021/12/25 04:09:34;;;;;;;3.70;1.10;;;;;;;-4.42;81.95;100018.05;1754391;81;21715;-77
2021/12/25 04:12:05;;;;;;;4.57;1.07;;;;;;;-4.52;81.83;100015.77;1782215;80;21000;-77
2021/12/25 04:14:34;;;;;;;3.47;1.30;;;;;;;-4.59;81.71;100029.27;1782600;80;21047;-76
2021/12/25 04:17:02;;;;;;;2.97;0.93;;;;;;;-4.64;81.88;100031.30;1782331;80;21028;-76
2021/12/25 04:19:30;;;;;;;5.63;1.67;;;;;;;-4.69;81.84;100035.46;1782303;80;21019;-76
2021/12/25 04:22:05;;;;;;;7.33;2.60;;;;;;;-4.78;81.61;100037.44;1782461;80;21776;-76
2021/12/25 04:24:34;;;;;;;6.67;3.00;;;;;;;-4.87;81.44;100038.13;1782204;80;20992;-76
2021/12/25 04:26:59;;;;;;;15.77;5.37;;;;;;;-4.90;81.84;100041.90;1782139;80;20981;-75
2021/12/25 05:02:05;;;;;;;5.53;2.67;;;;;;;-5.93;81.94;100073.29;1782500;80;22104;-77
2021/12/25 05:04:53;;;;;;;4.43;1.47;;;;;;;-6.07;81.51;100079.33;1750445;81;21080;-77
2021/12/25 05:07:22;;;;;;;3.30;1.37;;;;;;;-6.17;81.85;100083.36;1753497;81;21040;-76
2021/12/25 05:09:50;;;;;;;4.83;1.80;;;;;;;-6.18;82.08;100094.40;1754742;81;21059;-76
2021/12/25 05:12:17;;;;;;;3.70;1.50;;;;;;;-6.15;82.51;100099.95;1782576;80;20988;-76
2021/12/25 05:14:44;;;;;;;5.00;1.47;;;;;;;-6.18;82.04;100097.33;1782167;80;21108;-76
2021/12/25 05:17:13;;;;;;;3.67;1.60;;;;;;;-6.31;81.76;100100.86;1782517;80;21051;-77
2021/12/25 05:19:40;;;;;;;7.90;3.80;;;;;;;-6.34;82.13;100105.88;1782281;80;21032;-76
2021/12/25 05:22:07;;;;;;;3.00;1.20;;;;;;;-6.34;82.23;100107.16;1782540;80;21024;-76
2021/12/25 05:24:35;;;;;;;5.97;1.50;;;;;;;-6.28;82.51;100107.73;1782463;80;21027;-77
2021/12/25 05:27:02;;;;;;;4.97;1.30;;;;;;;-6.23;82.61;100118.92;1782649;80;21234;-76
2021/12/25 05:29:33;;;;;;;9.97;1.90;;;;;;;-6.23;82.65;100115.09;1782328;80;21064;-76
2021/12/25 05:31:58;;;;;;;5.27;1.53;;;;;;;-6.24;82.85;100114.63;1782505;80;21040;-76
2021/12/25 05:34:44;;;;;;;11.53;4.27;;;;;;;-6.28;82.20;100119.20;1782378;80;21031;-76
2021/12/25 05:37:25;;;;;;;17.30;4.63;;;;;;;-6.40;82.22;100121.03;1717568;80;21083;-75
2021/12/25 05:40:12;;;;;;;16.97;5.53;;;;;;;-6.38;82.53;100132.53;1782493;80;21481;-77
2021/12/25 05:42:41;;;;;;;16.37;4.83;;;;;;;-6.34;82.85;100133.08;1754491;81;21067;-76
2021/12/25 05:45:10;;;;;;;16.03;4.50;;;;;;;-6.33;83.13;100138.20;1782305;80;20985;-77
2021/12/25 05:47:39;;;;;;;17.12;5.85;;;;;;;-6.38;82.71;100138.48;1779431;80;20901;-76
2021/12/25 05:50:14;;;;;;;21.47;6.63;;;;;;;-6.41;82.40;100137.55;1779864;80;21270;-76
2021/12/25 05:52:46;;;;;;;20.03;6.20;;;;;;;-6.51;82.36;100145.37;1780158;80;21146;-76
2021/12/25 05:55:15;;;;;;;18.77;6.00;;;;;;;-6.57;82.02;100154.99;1777922;80;21028;-76
2021/12/25 05:58:03;;;;;;;16.33;6.07;;;;;;;-6.70;81.61;100158.42;1754880;81;21055;-76
2021/12/25 06:00:40;;;;;;;;;;;;;;;-6.79;81.90;100164.09;1747700;81;21016;-78
2021/12/25 06:03:09;;;;;;;12.73;5.20;;;;;;;-6.84;82.19;100166.53;1736096;82;20515;-76
2021/12/25 06:05:39;;;;;;;14.30;5.53;;;;;;;-6.87;81.88;100171.92;1725337;83;21244;-76
2021/12/25 06:08:06;;;;;;;12.23;5.27;;;;;;;-6.95;82.04;100174.27;1722221;83;21090;-76
2021/12/25 06:10:33;;;;;;;13.40;4.23;;;;;;;-7.01;81.77;100174.06;1713655;81;21524;-77
2021/12/25 06:13:02;;;;;;;12.80;4.27;;;;;;;-7.08;81.83;100182.36;1750557;81;21454;-77
2021/12/25 06:15:31;;;;;;;7.78;3.98;;;;;;;-7.14;81.79;100181.77;1751195;81;21089;-76
2021/12/25 06:18:00;;;;;;;8.37;2.90;;;;;;;-7.19;81.86;100190.94;1698133;83;21151;-76
2021/12/25 06:20:31;;;;;;;5.40;2.43;;;;;;;-7.17;82.29;100188.45;1719402;83;21122;-76
2021/12/25 06:23:17;;;;;;;7.83;3.03;;;;;;;-7.14;82.61;100188.13;1729218;82;21046;-77
2021/12/25 06:26:04;;;;;;;6.07;3.03;;;;;;;-7.03;83.01;100192.28;1704530;83;21050;-75
2021/12/25 06:28:50;;;;;;;8.20;3.40;;;;;;;-6.99;82.93;100192.41;1727529;82;21085;-76
2021/12/25 06:31:23;;;;;;;6.53;4.23;;;;;;;-7.00;82.85;100194.50;1690144;83;21588;-77
2021/12/25 06:33:52;;;;;;;8.05;3.65;;;;;;;-6.97;83.05;100195.01;1723191;81;21180;-76
2021/12/25 06:36:20;;;;;;;9.03;4.13;;;;;;;-6.97;83.01;100197.56;1732627;81;21078;-76
2021/12/25 06:38:49;;;;;;;6.43;3.07;;;;;;;-7.00;82.94;100200.88;1732983;81;21048;-76
2021/12/25 06:41:20;;;;;;;4.00;2.60;;;;;;;-7.01;82.84;100204.64;1727505;81;21086;-75
2021/12/25 06:43:49;;;;;;;5.97;2.80;;;;;;;-7.05;82.92;100201.14;1705825;82;22851;-76
2021/12/25 06:46:17;;;;;;;5.37;2.23;;;;;;;-7.03;82.99;100203.75;1711495;82;21110;-75
2021/12/25 06:48:44;;;;;;;5.00;2.23;;;;;;;-7.05;83.00;100204.96;1712865;82;21003;-76
2021/12/25 06:51:11;;;;;;;4.67;2.30;;;;;;;-7.06;83.07;100214.70;1717011;82;21563;-75
2021/12/25 06:53:46;;;;;;;5.57;3.20;;;;;;;-7.10;82.81;100219.23;1720175;82;21046;-75
2021/12/25 06:56:15;;;;;;;4.70;2.63;;;;;;;-7.08;83.08;100215.06;1681840;82;21880;-76
2021/12/25 06:58:55;;;;;;;5.03;2.30;;;;;;;-7.12;82.90;100217.45;1706310;83;21552;-76
2021/12/25 07:01:22;;;;;;;7.00;3.17;;;;;;;-7.13;83.26;100218.28;1726696;82;21092;-77
2021/12/25 07:03:50;;;;;;;5.53;2.73;;;;;;;-7.12;83.16;100217.45;1745826;82;21088;-76
2021/12/25 07:06:37;;;;;;;7.20;2.70;;;;;;;-7.12;83.01;100223.44;1745887;82;21126;-75
2021/12/25 07:09:11;;;;;;;6.43;2.60;;;;;;;-7.18;82.70;100224.50;1745580;81;22051;-76
2021/12/25 07:11:57;;;;;;;8.87;3.20;;;;;;;-7.22;82.52;100224.81;1745551;82;21037;-74
2021/12/25 07:14:25;;;;;;;5.53;2.33;;;;;;;-7.25;82.47;100225.14;1744358;82;21070;-75
2021/12/25 07:17:12;;;;;;;5.77;2.67;;;;;;;-7.29;82.58;100229.66;1743817;82;21032;-74
2021/12/25 07:19:59;;;;;;;8.80;3.10;;;;;;;-7.20;83.14;100229.56;1746027;82;21008;-74
2021/12/25 07:22:37;;;;;;;8.93;3.07;;;;;;;-7.16;83.11;100226.69;1745248;81;21210;-73
2021/12/25 07:25:08;;;;;;;13.23;5.70;;;;;;;-7.06;83.26;100229.13;1744077;82;21024;-75
2021/12/25 07:27:48;;;;;;;14.13;5.87;;;;;;;-7.07;82.85;100228.66;1723259;82;21541;-76
2021/12/25 07:30:15;;;;;;;17.03;5.90;;;;;;;-7.13;82.45;100233.56;1745735;82;21084;-74
2021/12/25 07:32:42;;;;;;;14.33;5.33;;;;;;;-7.14;82.72;100232.70;1745837;82;22217;-73
2021/12/25 07:35:09;;;;;;;14.40;5.63;;;;;;;-7.13;82.90;100229.33;1745562;82;21138;-73
2021/12/25 07:37:36;;;;;;;13.13;6.60;;;;;;;-7.07;82.91;100235.02;1745782;82;21508;-73
2021/12/25 07:40:09;;;;;;;12.10;4.63;;;;;;;-7.05;82.94;100238.08;1746046;82;21083;-72
2021/12/25 07:42:36;;;;;;;17.60;6.33;;;;;;;-7.01;83.03;100240.30;1745726;82;21044;-73
2021/12/25 07:45:10;;;;;;;10.93;5.20;;;;;;;-6.99;83.18;100239.53;1745848;82;21541;-76
2021/12/25 07:47:45;;;;;;;13.05;5.97;;;;;;;-6.99;82.91;100241.22;1745837;82;21334;-75
2021/12/25 07:50:09;;;;;;;14.07;6.43;;;;;;;-6.91;83.27;100238.92;1745476;82;20973;-71
2021/12/25 07:52:36;;;;;;;18.13;9.27;;;;;;;-6.88;83.27;100247.52;1743795;81;21394;-72
2021/12/25 07:55:04;;;;;;;19.63;8.67;;;;;;;-6.82;83.59;100248.11;1733505;82;21544;-72
2021/12/25 07:57:34;;;;;;;18.70;9.40;;;;;;;-6.71;83.85;100259.48;1733192;82;21090;-72
2021/12/25 08:00:01;;;;;;;28.73;13.17;;;;;;;-6.66;83.57;100260.91;1733545;82;21119;-72
2021/12/25 08:02:28;;;;;;;38.43;13.90;;;;;;;-6.61;83.97;100261.50;1735454;82;21047;-72
2021/12/25 08:04:55;;;;;;;40.03;16.67;;;;;;;-6.53;83.83;100260.47;1736296;82;21071;-73
2021/12/25 08:07:21;;;;;;;37.40;15.80;;;;;;;-6.44;84.10;100268.38;1736170;82;21042;-72
2021/12/25 08:09:48;;;;;;;39.53;17.47;;;;;;;-6.36;84.16;100267.33;1736495;82;21027;-73
2021/12/25 08:12:15;;;;;;;22.27;9.40;;;;;;;-6.26;84.33;100273.55;1735971;82;21127;-78
2021/12/25 08:14:42;;;;;;;33.83;12.33;;;;;;;-6.18;84.53;100266.98;1735824;82;21473;-74
2021/12/25 08:17:09;;;;;;;35.33;11.90;;;;;;;-6.03;84.83;100279.31;1736149;82;21077;-72
2021/12/25 08:19:55;;;;;;;30.40;10.53;;;;;;;-5.89;85.03;100286.48;1735999;82;21421;-75
2021/12/25 08:22:42;;;;;;;22.43;7.87;;;;;;;-5.68;85.26;100281.49;1751662;81;21015;-75
2021/12/25 08:25:27;;;;;;;18.70;6.67;;;;;;;-5.57;84.96;100292.00;1759147;81;21119;-77
2021/12/25 08:28:12;;;;;;;23.73;8.63;;;;;;;-5.53;84.56;100286.16;1646685;87;21117;-73
2021/12/25 08:30:57;;;;;;;18.97;7.03;;;;;;;-5.47;84.61;100286.31;1727634;81;21532;-73
2021/12/25 08:33:35;;;;;;;42.17;12.77;;;;;;;-5.33;84.98;100291.77;1667623;86;21039;-73
2021/12/25 08:36:21;;;;;;;43.43;15.13;;;;;;;-5.14;85.32;100300.77;1736242;82;21268;-71
2021/12/25 08:38:48;;;;;;;39.53;17.33;;;;;;;-4.97;85.23;100295.64;1736061;82;21100;-72
2021/12/25 08:41:15;;;;;;;45.50;18.57;;;;;;;-4.92;84.72;100292.78;1739562;81;21513;-74
2021/12/25 08:43:48;;;;;;;41.70;15.47;;;;;;;-4.95;84.37;100305.08;1760040;81;21070;-77
2021/12/25 08:46:25;;;;;;;16.50;6.23;;;;;;;-4.91;84.36;100303.88;1748497;81;21082;-79
2021/12/25 08:48:46;;;;;;;9.50;4.47;;;;;;;-4.79;84.74;100310.15;1704680;83;21078;-73
2021/12/25 08:51:13;;;;;;;11.27;4.87;;;;;;;-4.60;85.03;100315.67;1704958;84;21220;-74
2021/12/25 08:53:40;;;;;;;14.10;5.70;;;;;;;-4.51;84.47;100315.90;1705204;83;20989;-71
2021/12/25 08:56:07;;;;;;;20.23;9.90;;;;;;;-4.39;84.61;100314.02;1705146;83;21052;-75
2021/12/25 08:58:35;;;;;;;21.77;7.83;;;;;;;-4.28;84.44;100307.02;1705279;84;21001;-74
2021/12/25 09:01:06;;;;;;;24.53;10.57;;;;;;;-4.16;84.34;100308.11;1707578;82;21048;-73
2021/12/25 09:03:32;;;;;;;29.05;11.90;;;;;;;-4.11;83.96;100306.09;1731543;82;21137;-74
2021/12/25 09:06:02;;;;;;;33.93;12.40;;;;;;;-4.06;83.58;100317.30;1731422;82;20992;-75
2021/12/25 09:08:30;;;;;;;20.47;7.80;;;;;;;-3.96;83.98;100309.40;1731658;82;21000;-73
2021/12/25 09:10:57;;;;;;;18.47;7.53;;;;;;;-3.82;83.75;100310.95;1731724;82;21052;-74
2021/12/25 09:13:24;;;;;;;37.63;13.87;;;;;;;-3.71;83.79;100307.33;1731701;82;21062;-73
2021/12/25 09:15:51;;;;;;;18.77;6.80;;;;;;;-3.61;83.71;100307.50;1731908;82;22058;-75
2021/12/25 09:18:18;;;;;;;14.10;6.10;;;;;;;-3.42;84.00;100306.57;1731547;82;21008;-73
2021/12/25 09:20:46;;;;;;;14.80;5.90;;;;;;;-3.32;83.31;100305.91;1743111;81;21083;-75
2021/12/25 09:23:13;;;;;;;17.77;8.47;;;;;;;-3.28;82.85;100301.69;1763483;81;21075;-72
2021/12/25 09:25:40;;;;;;;16.77;8.50;;;;;;;-3.16;83.09;100307.02;1762760;81;21087;-72
2021/12/25 09:28:08;;;;;;;24.87;11.43;;;;;;;-3.03;83.20;100306.39;1763609;81;21498;-72
2021/12/25 09:30:36;;;;;;;6.73;2.80;;;;;;;-2.92;82.68;100303.58;1763397;81;21596;-72
2021/12/25 09:33:04;;;;;;;25.57;17.57;;;;;;;-2.85;82.31;100305.84;1763512;81;21021;-72
2021/12/25 09:35:31;;;;;;;16.63;10.83;;;;;;;-2.83;81.75;100304.56;1763475;81;21043;-72
2021/12/25 09:37:58;;;;;;;36.03;18.97;;;;;;;-2.77;81.92;100302.97;1763426;81;21034;-72
2021/12/25 09:40:25;;;;;;;26.37;17.73;;;;;;;-2.70;81.76;100303.92;1763581;81;21069;-72
2021/12/25 09:42:54;;;;;;;40.13;36.03;;;;;;;-2.59;81.67;100302.80;1763403;81;21023;-72
2021/12/25 09:45:22;;;;;;;13.93;9.90;;;;;;;-2.52;81.65;100309.33;1763546;81;21075;-72
2021/12/25 09:47:49;;;;;;;18.60;9.93;;;;;;;-2.45;81.43;100304.28;1763731;81;21094;-80
2021/12/25 09:50:16;;;;;;;23.93;10.73;;;;;;;-2.30;81.45;100308.33;1763654;81;21016;-72
2021/12/25 09:52:44;;;;;;;12.60;5.50;;;;;;;-2.28;81.00;100311.78;1763814;81;21118;-73
2021/12/25 09:55:14;;;;;;;8.77;3.90;;;;;;;-2.19;80.72;100311.94;1763536;81;21521;-72
2021/12/25 09:57:43;;;;;;;16.90;7.60;;;;;;;-2.08;81.17;100312.94;1763807;81;21517;-72
2021/12/25 10:00:23;;;;;;;8.37;3.80;;;;;;;-1.92;80.71;100315.67;1763516;81;21509;-72
2021/12/25 10:02:54;;;;;;;7.95;3.65;;;;;;;-1.88;80.21;100308.46;1763679;81;21496;-72
2021/12/25 10:05:32;;;;;;;12.03;5.73;;;;;;;-1.81;80.21;100303.81;1762708;80;21140;-71
2021/12/25 10:08:11;;;;;;;18.60;7.53;;;;;;;-1.73;80.24;100308.63;1763254;81;21008;-72
2021/12/25 10:10:54;;;;;;;11.70;4.23;;;;;;;-1.59;80.28;100309.62;1763396;81;21019;-72
2021/12/25 10:13:38;;;;;;;6.00;2.70;;;;;;;-1.53;79.42;100315.69;1763769;81;21012;-72
2021/12/25 10:16:29;;;;;;;3.90;2.10;;;;;;;-1.52;79.44;100317.00;1763523;81;21016;-72
2021/12/25 10:19:19;;;;;;;5.10;2.40;;;;;;;-1.43;79.14;100314.95;1763866;81;21133;-72
2021/12/25 10:21:46;;;;;;;15.00;6.03;;;;;;;-1.47;78.82;100313.17;1763448;81;21031;-72
2021/12/25 10:24:28;;;;;;;13.00;6.27;;;;;;;-1.35;79.47;100310.32;1763695;81;21051;-72
2021/12/25 10:26:48;;;;;;;13.87;5.70;;;;;;;-1.25;79.38;100308.69;1758868;81;21533;-72
2021/12/25 10:29:29;;;;;;;9.53;3.77;;;;;;;-1.18;79.11;100306.62;1763780;81;21112;-72
2021/12/25 10:32:02;;;;;;;11.87;6.47;;;;;;;-1.12;78.99;100314.38;1763659;81;21322;-72
2021/12/25 10:34:31;;;;;;;7.50;3.37;;;;;;;-1.12;78.54;100310.52;1761453;81;21051;-72
2021/12/25 10:37:11;;;;;;;7.73;3.40;;;;;;;-1.11;78.48;100304.95;1763485;81;21008;-72
2021/12/25 10:39:39;;;;;;;12.93;6.05;;;;;;;-0.95;78.90;100301.66;1760737;81;21040;-72
2021/12/25 10:42:12;;;;;;;20.87;9.03;;;;;;;-0.80;78.28;100299.66;1763642;81;21019;-72
2021/12/25 10:44:44;;;;;;;8.93;3.60;;;;;;;-0.75;77.78;100297.98;1763795;81;21118;-73
2021/12/25 10:47:18;;;;;;;6.07;2.67;;;;;;;-0.65;77.60;100305.33;1763333;81;21524;-72
2021/12/25 10:49:50;;;;;;;10.17;3.93;;;;;;;-0.66;76.97;100304.91;1763705;81;21067;-74
2021/12/25 10:52:27;;;;;;;6.50;3.33;;;;;;;-0.79;76.76;100311.66;1763503;81;21036;-72
2021/12/25 10:55:07;;;;;;;12.27;6.10;;;;;;;-0.89;76.80;100316.28;1763826;81;21031;-71
2021/12/25 10:57:52;;;;;;;10.50;5.87;;;;;;;-1.00;77.24;100317.91;1755347;81;21153;-72
2021/12/25 11:00:27;;;;;;;10.83;5.37;;;;;;;-1.10;77.26;100315.70;1763568;81;21564;-72
2021/12/25 11:03:05;;;;;;;7.87;5.80;;;;;;;-1.25;77.23;100313.83;1762580;81;21062;-75
2021/12/25 11:05:37;;;;;;;9.20;3.23;;;;;;;-1.42;77.34;100321.80;1732415;81;21039;-76
2021/12/25 11:08:14;;;;;;;9.97;4.70;;;;;;;-1.55;77.41;100326.37;1728748;83;21047;-75
2021/12/25 11:10:48;;;;;;;8.03;4.63;;;;;;;-1.67;77.42;100322.81;1727500;83;21150;-74
2021/12/25 11:13:42;;;;;;;9.63;4.50;;;;;;;-1.80;77.51;100319.69;1729555;83;21026;-71
2021/12/25 11:16:23;;;;;;;7.77;4.03;;;;;;;-1.96;76.99;100327.63;1728997;83;21035;-76
2021/12/25 11:19:03;;;;;;;6.90;3.57;;;;;;;-2.16;77.24;100320.95;1729031;83;21520;-73
2021/12/25 11:21:22;;;;;;;9.37;4.83;;;;;;;-2.20;77.59;100315.75;1728299;83;21039;-73
2021/12/25 11:23:49;;;;;;;9.87;4.50;;;;;;;-2.29;77.51;100321.20;1729720;83;21107;-73
2021/12/25 11:26:16;;;;;;;13.63;7.47;;;;;;;-2.34;77.99;100315.56;1730019;83;21004;-72
2021/12/25 11:28:44;;;;;;;11.63;7.73;;;;;;;-2.34;78.32;100323.27;1729654;83;21058;-73
2021/12/25 11:31:11;;;;;;;8.70;5.40;;;;;;;-2.35;78.34;100325.40;1729557;83;21836;-73
2021/12/25 11:33:39;;;;;;;12.57;5.83;;;;;;;-2.40;78.33;100319.33;1729560;83;21090;-75
2021/12/25 11:36:06;;;;;;;7.13;3.70;;;;;;;-2.38;78.43;100330.06;1729836;83;21187;-84
2021/12/25 11:38:34;;;;;;;13.63;9.70;;;;;;;-2.38;78.39;100327.50;1729515;83;21504;-82
2021/12/25 11:41:08;;;;;;;11.13;6.27;;;;;;;-2.48;78.04;100327.77;1729724;83;21000;-73
2021/12/25 11:43:41;;;;;;;10.23;4.70;;;;;;;-2.57;77.87;100323.80;1729588;83;20980;-72
2021/12/25 11:46:09;;;;;;;19.57;9.50;;;;;;;-2.64;77.99;100319.39;1729872;83;21034;-73
2021/12/25 11:48:38;;;;;;;29.87;14.33;;;;;;;-2.67;78.19;100314.65;1729605;83;21181;-75
2021/12/25 11:51:07;;;;;;;11.33;6.27;;;;;;;-2.70;78.24;100310.33;1729745;83;20999;-72
2021/12/25 11:54:05;;;;;;;18.33;9.00;;;;;;;-2.74;78.16;100317.55;1729603;83;21421;-72
2021/12/25 11:58:55;;;;;;;97.60;38.67;;;;;;;-2.82;78.14;100322.55;1729685;83;21513;-73
2021/12/25 12:01:49;;;;;;;25.37;9.27;;;;;;;-2.88;78.14;100319.90;1729610;83;21979;-72
2021/12/25 12:04:28;;;;;;;15.50;7.80;;;;;;;-2.93;78.00;100315.11;1729582;83;21059;-73
2021/12/25 12:07:08;;;;;;;20.70;8.93;;;;;;;-2.99;78.07;100317.58;1729096;83;21018;-73
2021/12/25 12:09:54;;;;;;;11.87;5.63;;;;;;;-3.06;78.04;100310.61;1716190;83;21019;-72
2021/12/25 12:12:33;;;;;;;16.03;7.33;;;;;;;-3.05;78.36;100322.16;1729643;83;21035;-72
2021/12/25 12:15:16;;;;;;;38.93;16.23;;;;;;;-3.05;78.31;100326.42;1711710;83;21116;-72
2021/12/25 12:18:31;;;;;;;58.23;20.23;;;;;;;-3.05;78.36;100332.84;1729739;83;21051;-73
2021/12/25 12:21:12;;;;;;;17.53;7.13;;;;;;;-3.06;78.24;100333.69;1729639;83;21019;-70
2021/12/25 12:26:13;;;;;;;11.20;4.00;;;;;;;-3.09;78.28;100337.06;1729527;83;21054;-76
2021/12/25 12:28:54;;;;;;;13.67;5.10;;;;;;;-3.06;78.17;100333.69;1729730;83;21166;-73
2021/12/25 12:31:47;;;;;;;12.27;5.40;;;;;;;-3.05;78.51;100330.27;1728586;83;20992;-71
2021/12/25 12:34:37;;;;;;;15.83;5.60;;;;;;;-2.97;78.53;100336.39;1730192;83;20991;-72
2021/12/25 12:37:21;;;;;;;12.17;4.77;;;;;;;-2.87;78.77;100338.71;1729852;83;21064;-72
2021/12/25 12:40:00;;;;;;;13.80;6.50;;;;;;;-2.69;78.94;100340.27;1730227;83;21020;-72
2021/12/25 12:42:50;;;;;;;35.13;11.73;;;;;;;-2.51;79.09;100343.13;1729889;83;21214;-72
2021/12/25 12:45:25;;;;;;;18.23;7.40;;;;;;;-2.32;78.90;100346.83;1729911;83;21015;-72
2021/12/25 12:48:22;;;;;;;34.50;18.27;;;;;;;-2.30;78.23;100339.13;1729789;83;21047;-72
2021/12/25 12:50:53;;;;;;;22.90;10.30;;;;;;;-2.33;78.00;100336.13;1730086;83;21461;-71
2021/12/25 12:53:24;;;;;;;45.93;19.43;;;;;;;-2.34;78.38;100334.81;1729795;83;21085;-75
2021/12/25 12:55:55;;;;;;;20.92;8.35;;;;;;;-2.30;78.36;100337.45;1730033;83;21932;-71
2021/12/25 12:58:26;;;;;;;25.53;9.37;;;;;;;-2.26;78.58;100345.63;1728158;83;21030;-71
2021/12/25 13:01:01;;;;;;;28.17;12.33;;;;;;;-2.18;78.85;100350.88;1759717;80;21032;-81
2021/12/25 13:03:30;;;;;;;40.23;18.40;;;;;;;-2.21;78.52;100357.25;1753712;81;21473;-74
2021/12/25 13:06:05;;;;;;;15.90;7.90;;;;;;;-2.26;78.38;100352.47;1735744;82;21092;-72
2021/12/25 13:08:35;;;;;;;15.67;6.87;;;;;;;-2.27;78.38;100351.61;1735874;82;21305;-72
2021/12/25 13:11:16;;;;;;;29.60;10.70;;;;;;;-2.34;78.10;100353.64;1735674;82;21028;-71